Latest Weather Observations for Coffs Harbour Airport

IDN60801

Issued at 11:03 pm EST Monday 25 September 2017 (issued every 30 minutes, with the page automatically refreshed every 10 minutes)

About weather observations | Map of weather stations | Latest weather observations for NSW | Other Formats
Station Details ID: 059151 Name: COFFS HARBOUR AIRPORT Lat: -30.32 Lon: 153.12 Height: 3.5 m
Data from the previous 72 hours. | See also: Recent months at Coffs Harbour Airport
Date/Time
EST
Temp
°C
App
Temp
°C
Dew
Point
°C
Rel
Hum
%
Delta-T
°C
Wind Press
QNH
hPa
Press
MSL
hPa
Rain since
9am
mm
Dir  Spd
km/h
Gust
km/h
Spd
kts
Gust
kts
25/11:00pm 24.9 19.1 2.4 23 10.8 SW 22 30 12 16 1010.9 1010.9 0.0
25/10:30pm 24.8 19.6 2.3 23 10.8 SW 19 28 10 15 1011.0 1011.0 0.0
25/10:00pm 24.5 20.1 2.6 24 10.5 SW 15 28 8 15 1011.0 1011.0 0.0
25/09:30pm 24.6 20.2 2.7 24 10.6 SW 15 20 8 11 1011.1 1011.1 0.0
25/09:00pm 25.5 20.4 2.9 23 11.0 WSW 19 28 10 15 1011.2 1011.2 0.0
25/08:30pm 25.8 22.0 3.7 24 10.9 WSW 13 22 7 12 1011.0 1011.0 0.0
25/08:00pm 27.3 23.1 3.7 22 11.8 WSW 15 22 8 12 1010.9 1010.9 0.0
25/07:30pm 27.6 22.2 4.6 23 11.7 WSW 22 35 12 19 1010.2 1010.2 0.0
25/07:15pm 26.9 24.8 8.4 31 10.0 SW 9 24 5 13 1009.9 1009.9 0.0
25/07:03pm 21.8 22.6 17.2 75 2.8 S 9 13 5 7 1009.7 1009.7 0.0
25/07:00pm 22.1 23.0 17.5 75 2.8 SSE 9 13 5 7 1009.6 1009.6 0.0
25/06:37pm 21.4 23.5 18.0 81 2.1 SSW 4 7 2 4 1008.9 1008.9 0.0
25/06:30pm 21.5 23.9 17.9 80 2.2 WSW 2 7 1 4 1008.7 1008.7 0.0
25/06:00pm 21.8 23.4 18.2 80 2.2 WSW 7 9 4 5 1008.0 1008.0 0.0
25/05:30pm 22.0 24.8 18.0 78 2.5 CALM 0 0 0 0 1007.3 1007.3 0.0
25/05:00pm 22.7 23.3 18.5 77 2.6 NNE 13 17 7 9 1006.7 1006.7 0.0
25/04:30pm 23.0 23.0 18.1 74 3.1 NNE 15 22 8 12 1006.1 1006.1 0.0
25/04:00pm 23.4 22.5 17.8 71 3.5 NNE 19 26 10 14 1005.7 1005.7 0.0
25/03:30pm 23.9 22.7 17.4 67 4.0 NNE 20 28 11 15 1005.7 1005.7 0.0
25/03:00pm 24.6 23.8 17.1 63 4.7 NNE 17 22 9 12 1005.8 1005.8 0.0
25/02:30pm 26.0 24.3 16.3 55 6.0 NNE 20 30 11 16 1006.0 1006.0 0.0
25/02:00pm 25.7 23.1 16.8 58 5.5 NE 26 33 14 18 1006.3 1006.3 0.0
25/01:30pm 28.4 26.1 16.7 49 7.3 NNE 24 30 13 16 1006.3 1006.3 0.0
25/01:00pm 29.0 26.9 16.2 46 8.0 NE 22 30 12 16 1006.6 1006.6 0.0
25/12:30pm 28.0 26.4 16.6 50 7.1 NE 20 30 11 16 1006.6 1006.6 0.0
25/12:00pm 28.6 28.3 16.5 48 7.5 NE 13 19 7 10 1007.2 1007.2 0.0
25/11:30am 27.6 26.3 16.9 52 6.7 E 19 26 10 14 1007.7 1007.7 0.0
25/11:00am 26.0 23.6 15.4 52 6.4 E 22 30 12 16 1007.9 1007.9 0.0
25/10:56am 26.3 23.8 14.1 47 7.2 E 20 30 11 16 1008.0 1008.0 0.0
25/10:30am 31.7 29.8 13.0 32 11.2 NNE 15 19 8 10 1007.9 1007.9 0.0
25/10:00am 30.9 29.2 12.3 32 11.0 NE 13 15 7 8 1008.0 1008.0 0.0
25/09:30am 28.6 25.9 11.6 34 9.8 E 17 20 9 11 1008.2 1008.2 0.0
25/09:00am 27.9 25.8 12.3 38 9.1 NE 15 17 8 9 1008.2 1008.2 0.0
25/08:30am 27.4 27.0 14.1 44 7.9 E 9 11 5 6 1008.3 1008.3 0.0
25/08:00am 23.7 24.6 16.7 65 4.3 ENE 7 13 4 7 1008.0 1008.0 0.0
25/07:30am 22.4 22.1 15.5 65 4.1 E 11 13 6 7 1007.9 1007.9 0.0
25/07:00am 21.1 21.9 16.3 74 2.9 E 7 13 4 7 1007.7 1007.7 0.0
25/06:46am 20.0 20.5 15.0 73 2.9 SW 6 11 3 6 1007.9 1007.9 0.0
25/06:30am 18.9 18.1 14.0 73 2.8 SSE 11 15 6 8 1007.7 1007.7 0.0
25/06:00am 18.9 18.2 13.1 69 3.3 NNE 9 11 5 6 1007.0 1007.0 0.0
25/05:30am 19.5 18.5 13.4 68 3.5 SSW 11 15 6 8 1007.2 1007.2 0.0
25/05:00am 19.5 18.4 13.2 67 3.6 N 11 15 6 8 1006.2 1006.2 0.0
25/04:30am 17.9 18.2 14.4 80 2.0 NNW 6 15 3 8 1006.6 1006.6 0.0
25/04:00am 17.1 16.9 13.6 80 2.0 SSW 7 11 4 6 1007.5 1007.5 0.0
25/03:30am 18.6 18.0 14.5 77 2.4 SSE 11 19 6 10 1007.0 1007.0 0.0
25/03:00am 18.6 18.8 14.3 76 2.5 WSW 6 9 3 5 1007.2 1007.2 0.0
25/02:30am 18.8 18.0 13.9 73 2.8 S 11 15 6 8 1006.0 1006.0 0.0
25/02:00am 20.9 20.6 14.5 67 3.8 ENE 9 13 5 7 1005.7 1005.7 0.0
25/01:30am 18.9 18.9 14.2 74 2.7 NNW 7 15 4 8 1005.8 1005.8 0.0
25/01:00am 17.9 17.1 13.0 73 2.8 ENE 9 9 5 5 1006.5 1006.5 0.0
25/12:30am 19.2 18.9 13.2 68 3.4 ENE 7 13 4 7 1005.8 1005.8 0.0
25/12:00am 22.3 22.3 15.2 64 4.2 NW 9 13 5 7 1006.0 1006.0 0.0
 
Date/Time
EST
Temp
°C
App
Temp
°C
Dew
Point
°C
Rel
Hum
%
Delta-T
°C
Wind Press
QNH
hPa
Press
MSL
hPa
Rain since
9am
mm
Dir  Spd
km/h
Gust
km/h
Spd
kts
Gust
kts
24/11:30pm 20.4 20.9 16.6 79 2.3 NNW 9 11 5 6 1006.5 1006.5 0.0
24/11:00pm 22.0 21.9 16.9 73 3.1 N 13 17 7 9 1006.3 1006.3 0.0
24/10:36pm 21.5 21.5 17.3 77 2.6 NE 13 15 7 8 1006.1 1006.1 0.0
24/10:30pm 21.4 22.2 17.4 78 2.5 NE 9 15 5 8 1006.1 1006.1 0.0
24/10:22pm 21.5 22.8 17.5 78 2.5 NNE 7 15 4 8 1006.4 1006.4 0.0
24/10:19pm 21.5 22.0 17.5 78 2.5 NNE 11 15 6 8 1006.5 1006.5 0.0
24/10:00pm 20.6 22.2 17.8 84 1.7 NNE 6 11 3 6 1006.9 1006.9 0.0
24/09:30pm 20.5 21.5 17.7 84 1.7 NNE 9 15 5 8 1006.7 1006.7 0.0
24/09:00pm 20.8 21.3 18.4 86 1.5 NNE 13 17 7 9 1005.9 1005.9 0.0
24/08:30pm 20.8 22.0 18.2 85 1.6 NNE 9 15 5 8 1005.8 1005.8 0.0
24/08:00pm 20.7 21.4 17.9 84 1.7 N 11 15 6 8 1005.7 1005.7 0.0
24/07:30pm 21.1 21.6 18.3 84 1.7 NNE 13 17 7 9 1005.2 1005.2 0.0
24/07:00pm 21.2 20.4 18.4 84 1.8 NNE 20 28 11 15 1005.0 1005.0 0.0
24/06:30pm 21.4 20.6 18.4 83 1.9 NNE 20 28 11 15 1005.1 1005.1 0.0
24/06:00pm 21.4 19.4 18.2 82 2.0 NNE 26 35 14 19 1004.7 1004.7 0.0
24/05:57pm 21.5 19.5 18.3 82 2.0 NE 26 35 14 19 1004.7 1004.7 0.0
24/05:30pm 22.4 20.3 18.0 76 2.7 NE 26 32 14 17 1004.3 1004.3 0.0
24/05:00pm 23.4 21.1 17.6 70 3.6 NE 26 32 14 17 1003.9 1003.9 0.0
24/04:30pm 24.8 23.2 17.5 64 4.6 NE 22 30 12 16 1003.4 1003.4 0.0
24/04:00pm 26.7 25.4 17.2 56 6.0 NE 20 28 11 15 1003.2 1003.2 0.0
24/03:30pm 28.9 27.4 16.8 48 7.6 NE 20 32 11 17 1002.9 1002.9 0.0
24/03:00pm 28.7 26.9 14.5 42 8.6 NE 17 28 9 15 1003.0 1003.0 0.0
24/02:49pm 31.5 28.8 12.8 32 11.1 NNE 19 37 10 20 1003.0 1003.0 0.0
24/02:39pm 37.2 31.0 6.3 15 17.1 NNE 28 37 15 20 1002.9 1002.9 0.0
24/02:32pm 31.7 27.2 11.5 29 11.8 NW 26 37 14 20 1003.1 1003.1 0.0
24/02:30pm 38.7 32.9 4.2 12 18.6 NW 24 35 13 19 1003.0 1003.0 0.0
24/02:21pm 37.9 32.2 4.7 13 17.9 N 24 48 13 26 1002.9 1002.9 0.0
24/02:18pm 38.7 33.1 5.4 13 18.3 N 24 48 13 26 1002.9 1002.9 0.0
24/02:09pm 37.3 32.8 6.3 15 17.1 NNE 19 33 10 18 1003.1 1003.1 0.0
24/02:00pm 32.1 29.2 15.1 35 10.5 NE 24 37 13 20 1003.1 1003.1 0.0
24/01:30pm 28.6 26.0 17.8 52 6.9 NE 28 41 15 22 1003.4 1003.4 0.0
24/01:00pm 27.0 22.2 16.6 53 6.5 NNE 37 50 20 27 1004.1 1004.1 0.0
24/12:30pm 28.3 25.7 17.8 53 6.7 NE 28 35 15 19 1004.4 1004.4 0.0
24/12:00pm 27.2 23.7 17.4 55 6.2 NNE 32 43 17 23 1004.8 1004.8 0.0
24/11:30am 29.2 24.6 16.0 44 8.2 NNE 35 48 19 26 1005.5 1005.5 0.0
24/11:00am 32.1 26.9 13.3 31 11.3 NNE 33 41 18 22 1006.0 1006.0 0.0
24/10:30am 32.6 26.9 11.2 27 12.5 N 32 41 17 22 1006.6 1006.6 0.0
24/10:00am 32.5 28.8 11.6 28 12.3 N 22 39 12 21 1007.0 1007.0 0.0
24/09:48am 31.9 26.8 10.6 27 12.3 N 28 48 15 26 1007.1 1007.1 0.0
24/09:30am 31.8 26.3 10.5 27 12.2 N 30 39 16 21 1007.0 1007.0 0.0
24/09:10am 31.4 25.8 10.2 27 12.1 N 30 48 16 26 1006.9 1006.9 0.0
24/09:00am 31.6 26.0 10.3 27 12.2 NNW 30 44 16 24 1006.9 1006.9 0.0
24/08:36am 30.7 24.8 10.6 29 11.5 NNW 32 50 17 27 1006.9 1006.9 0.0
24/08:30am 30.4 24.3 9.8 28 11.6 NNW 32 48 17 26 1006.9 1006.9 0.0
24/08:21am 30.4 25.1 9.8 28 11.6 NNW 28 48 15 26 1006.9 1006.9 0.0
24/08:00am 28.8 25.2 10.5 32 10.4 NE 20 28 11 15 1007.4 1007.4 0.0
24/07:30am 24.4 23.0 13.3 50 6.5 NE 13 20 7 11 1008.0 1008.0 0.0
24/07:00am 28.2 24.9 9.5 31 10.4 N 17 35 9 19 1007.7 1007.7 0.0
24/06:30am 27.7 24.6 9.0 31 10.3 NNE 15 20 8 11 1007.6 1007.6 0.0
24/06:00am 26.7 24.8 9.1 33 9.7 NNE 9 15 5 8 1007.5 1007.5 0.0
24/05:30am 27.1 23.0 8.5 31 10.1 NNW 20 30 11 16 1007.1 1007.1 0.0
24/05:00am 26.4 23.9 8.4 32 9.7 SW 11 15 6 8 1007.1 1007.1 0.0
24/04:30am 27.2 21.1 8.1 30 10.3 NW 30 39 16 21 1006.6 1006.6 0.0
24/04:00am 27.5 21.7 7.9 29 10.6 NW 28 43 15 23 1006.4 1006.4 0.0
24/03:30am 26.2 21.6 8.2 32 9.7 NW 22 32 12 17 1006.6 1006.6 0.0
24/03:00am 26.7 21.6 9.1 33 9.7 NNW 26 33 14 18 1006.6 1006.6 0.0
24/02:30am 27.0 21.1 8.9 32 9.9 NW 30 43 16 23 1006.5 1006.5 0.0
24/02:00am 26.6 21.8 9.0 33 9.6 NNW 24 35 13 19 1006.6 1006.6 0.0
24/01:30am 26.8 20.9 9.2 33 9.7 NW 30 43 16 23 1006.9 1006.9 0.0
24/01:00am 26.7 21.3 10.8 37 9.0 NW 30 35 16 19 1007.0 1007.0 0.0
24/12:30am 26.5 21.4 11.8 40 8.4 NW 30 39 16 21 1007.5 1007.5 0.0
24/12:00am 26.2 22.5 12.6 43 7.9 NW 24 32 13 17 1007.9 1007.9 0.0
 
Date/Time
EST
Temp
°C
App
Temp
°C
Dew
Point
°C
Rel
Hum
%
Delta-T
°C
Wind Press
QNH
hPa
Press
MSL
hPa
Rain since
9am
mm
Dir  Spd
km/h
Gust
km/h
Spd
kts
Gust
kts
23/11:30pm 25.7 24.5 13.9 48 7.0 NNW 13 24 7 13 1008.2 1008.2 0.0
23/11:00pm 21.7 19.7 17.3 76 2.7 ENE 24 39 13 21 1008.4 1008.4 0.0
23/10:30pm 20.7 18.1 17.9 84 1.7 ENE 28 37 15 20 1008.5 1008.5 0.0
23/10:00pm 21.1 18.8 17.5 80 2.2 NE 26 32 14 17 1008.7 1008.7 0.0
23/09:30pm 21.7 20.6 17.3 76 2.7 NE 19 26 10 14 1009.0 1009.0 0.0
23/09:00pm 21.4 20.7 17.4 78 2.5 ENE 17 24 9 13 1009.2 1009.2 0.0
23/08:30pm 20.4 20.0 18.0 86 1.5 NE 17 19 9 10 1009.4 1009.4 0.0
23/08:00pm 20.5 19.6 18.1 86 1.5 NE 20 26 11 14 1009.5 1009.5 0.0
23/07:30pm 21.0 20.0 18.0 83 1.9 NE 20 26 11 14 1009.4 1009.4 0.0
23/07:00pm 21.7 21.5 17.7 78 2.5 NE 15 22 8 12 1009.0 1009.0 0.0
23/06:30pm 21.6 21.1 17.8 79 2.4 NE 17 24 9 13 1008.9 1008.9 0.0
23/06:00pm 22.2 21.6 17.6 75 2.8 NE 17 24 9 13 1008.8 1008.8 0.0
23/05:30pm 22.7 21.5 17.4 72 3.3 NNE 20 26 11 14 1008.5 1008.5 0.0
23/05:00pm 24.5 23.1 17.0 63 4.6 NNE 20 30 11 16 1008.3 1008.3 0.0
23/04:30pm 24.7 21.9 17.2 63 4.7 NE 28 37 15 20 1008.0 1008.0 0.0
23/04:00pm 25.1 21.1 16.8 60 5.1 NE 33 44 18 24 1007.9 1007.9 0.0
23/03:30pm 26.6 23.0 17.1 56 5.9 NE 32 43 17 23 1007.9 1007.9 0.0
23/03:00pm 26.4 22.4 16.6 55 6.1 NE 33 43 18 23 1008.0 1008.0 0.0
23/02:30pm 25.5 21.3 17.2 60 5.2 NE 35 46 19 25 1008.2 1008.2 0.0
23/02:00pm 25.3 20.7 16.2 57 5.6 NE 35 44 19 24 1008.5 1008.5 0.0
23/01:30pm 27.2 22.6 16.2 51 6.8 NE 35 46 19 25 1008.8 1008.8 0.0
23/01:00pm 27.1 23.2 16.4 52 6.6 NE 32 41 17 22 1009.5 1009.5 0.0
23/12:30pm 27.2 24.2 17.7 56 6.0 NE 30 35 16 19 1009.8 1009.8 0.0
23/12:00pm 28.2 25.7 16.1 47 7.5 NE 24 32 13 17 1010.3 1010.3 0.0
23/11:30am 29.2 27.9 15.7 44 8.3 NE 17 24 9 13 1010.9 1010.9 0.0
23/11:00am 28.0 28.0 16.3 49 7.2 E 11 15 6 8 1011.5 1011.5 0.0
23/10:30am 26.8 26.3 13.9 45 7.7 SE 9 13 5 7 1012.0 1012.0 0.0
23/10:00am 25.5 23.9 12.7 45 7.4 SE 13 15 7 8 1012.4 1012.4 0.0
23/09:30am 24.9 24.0 13.8 50 6.5 SE 11 15 6 8 1012.8 1012.8 0.0
23/09:00am 24.7 23.8 13.6 50 6.5 ESE 11 15 6 8 1013.1 1013.1 0.0
23/08:30am 25.6 25.1 12.8 45 7.4 NNE 7 15 4 8 1013.0 1013.0 0.0
23/08:00am 22.0 22.1 14.4 62 4.5 SW 7 7 4 4 1013.2 1013.2 0.0
23/07:30am 20.3 20.1 14.7 70 3.3 SSW 9 13 5 7 1013.2 1013.2 0.0
23/07:00am 19.2 20.5 15.1 77 2.4 N 2 7 1 4 1012.9 1012.9 0.0
23/06:30am 18.3 17.8 12.7 70 3.1 WSW 7 11 4 6 1012.7 1012.7 0.0
23/06:00am 18.8 17.9 13.6 72 3.0 NW 11 15 6 8 1012.5 1012.5 0.0
23/05:58am 18.3 17.3 13.4 73 2.8 NW 11 19 6 10 1012.6 1012.6 0.0
23/05:30am 13.2 12.1 12.1 93 0.6 W 9 11 5 6 1012.5 1012.5 0.0
23/05:00am 13.1 12.1 11.0 87 1.1 N 7 11 4 6 1012.6 1012.6 0.0
23/04:52am 15.2 15.4 14.7 97 0.3 NW 7 11 4 6 1012.5 1012.5 0.0
23/04:30am 12.5 13.0 11.6 94 0.5 CALM 0 7 0 4 1012.4 1012.4 0.0
23/04:08am 12.7 12.9 11.8 94 0.5 N 2 11 1 6 1012.3 1012.3 0.0
23/04:00am 12.8 12.2 11.7 93 0.6 ENE 6 7 3 4 1012.4 1012.4 0.0
23/03:30am 12.5 12.7 11.7 95 0.4 SW 2 6 1 3 1012.5 1012.5 0.0
23/03:10am 12.8 13.4 11.9 94 0.5 CALM 0 0 0 0 1012.5 1012.5 0.0
23/03:00am 12.9 13.5 12.0 94 0.5 CALM 0 2 0 1 1012.5 1012.5 0.0
23/02:30am 13.5 14.3 12.4 93 0.6 CALM 0 0 0 0 1012.6 1012.6 0.0
23/02:04am 14.2 13.9 13.4 95 0.4 NW 7 9 4 5 1012.9 1012.9 0.0
23/02:00am 14.7 14.6 13.9 95 0.4 NW 7 9 4 5 1012.9 1012.9 0.0
23/01:53am 14.1 14.7 13.1 94 0.6 NW 2 9 1 5 1013.0 1013.0 0.0
23/01:30am 13.8 12.9 12.7 93 0.6 W 9 11 5 6 1013.2 1013.2 0.0
23/01:00am 14.9 16.1 13.8 93 0.6 CALM 0 0 0 0 1013.7 1013.7 0.0
23/12:55am 14.5 15.5 13.2 92 0.7 CALM 0 6 0 3 1013.7 1013.7 0.0
23/12:54am 14.5 15.2 13.4 93 0.6 W 2 6 1 3 1013.7 1013.7 0.0
23/12:39am 14.5 14.4 13.2 92 0.7 W 6 7 3 4 1013.7 1013.7 0.0
23/12:30am 14.8 14.8 13.5 92 0.7 WSW 6 7 3 4 1013.7 1013.7 0.0
23/12:00am 15.5 16.8 14.0 91 0.8 CALM 0 6 0 3 1013.8 1013.8 0.0
 
Date/Time
EST
Temp
°C
App
Temp
°C
Dew
Point
°C
Rel
Hum
%
Delta-T
°C
Wind Press
QNH
hPa
Press
MSL
hPa
Rain since
9am
mm
Dir  Spd
km/h
Gust
km/h
Spd
kts
Gust
kts
22/11:30pm 16.6 16.9 14.4 87 1.3 NNE 6 7 3 4 1013.7 1013.7 0.0

Other Formats:

Comma delimited format used in spreadsheet applications
http://www.bom.gov.au/fwo/IDN60801/IDN60801.95729.axf

JavaScript Object Notation format (JSON) in row-major order
http://www.bom.gov.au/fwo/IDN60801/IDN60801.95729.json